createdAt,value
2022-09-23T00:00:02.397Z,1.73
2022-09-23T00:00:13.858Z,1.70
2022-09-23T00:00:25.095Z,1.70
2022-09-23T00:00:36.448Z,1.73
2022-09-23T00:00:47.819Z,1.83
2022-09-23T00:01:03.262Z,1.85
2022-09-23T00:01:14.748Z,1.90
2022-09-23T00:01:26.136Z,1.83
2022-09-23T00:01:37.540Z,1.75
2022-09-23T00:01:48.916Z,1.80
2022-09-23T00:02:00.313Z,1.80
2022-09-23T00:02:11.832Z,1.88
2022-09-23T00:02:23.155Z,2.08
2022-09-23T00:02:34.549Z,2.25
2022-09-23T00:02:46.490Z,2.17
2022-09-23T00:02:57.921Z,2.20
2022-09-23T00:03:09.901Z,2.22
2022-09-23T00:03:21.179Z,2.00
2022-09-23T00:03:33.159Z,1.88
2022-09-23T00:03:45.062Z,1.63
2022-09-23T00:03:58.504Z,1.70
2022-09-23T00:04:09.770Z,2.10
2022-09-23T00:04:21.048Z,2.20
2022-09-23T00:04:32.325Z,2.08
2022-09-23T00:04:43.500Z,1.85
2022-09-23T00:04:54.730Z,2.10
2022-09-23T00:05:06.237Z,2.30
2022-09-23T00:05:17.861Z,2.30
2022-09-23T00:05:30.330Z,2.22
2022-09-23T00:05:41.980Z,1.95
2022-09-23T00:06:04.180Z,1.90
2022-09-23T00:06:16.830Z,2.72
2022-09-23T00:06:28.086Z,2.33
2022-09-23T00:06:39.623Z,1.92
2022-09-23T00:06:50.864Z,1.90
2022-09-23T00:07:02.052Z,2.08
2022-09-23T00:07:13.344Z,1.85
2022-09-23T00:07:24.585Z,1.85
2022-09-23T00:07:36.201Z,1.80
2022-09-23T00:07:47.509Z,2.10
2022-09-23T00:07:59.139Z,1.95
2022-09-23T00:08:11.835Z,1.73
2022-09-23T00:08:23.068Z,1.70
2022-09-23T00:08:34.440Z,1.80
2022-09-23T00:08:45.724Z,1.75
2022-09-23T00:08:56.938Z,1.75
2022-09-23T00:09:08.165Z,1.90
2022-09-23T00:09:19.444Z,2.03
2022-09-23T00:09:30.670Z,1.92
2022-09-23T00:09:41.925Z,1.85
2022-09-23T00:09:53.222Z,1.70
2022-09-23T00:10:05.074Z,1.80
2022-09-23T00:10:16.299Z,1.80
2022-09-23T00:10:28.413Z,1.63
2022-09-23T00:10:39.997Z,1.80
2022-09-23T00:10:51.227Z,1.80
2022-09-23T00:11:06.493Z,1.65
2022-09-23T00:11:19.096Z,1.63
2022-09-23T00:11:30.536Z,1.80
2022-09-23T00:11:41.794Z,1.80
2022-09-23T00:11:53.085Z,2.00
2022-09-23T00:12:08.719Z,1.90
2022-09-23T00:12:20.355Z,1.85
2022-09-23T00:12:31.652Z,1.73
2022-09-23T00:12:42.893Z,1.90
2022-09-23T00:12:55.138Z,2.00
2022-09-23T00:13:06.412Z,2.28
2022-09-23T00:13:17.702Z,2.40
2022-09-23T00:13:28.962Z,2.38
2022-09-23T00:13:41.132Z,2.30
2022-09-23T00:13:53.917Z,2.00
2022-09-23T00:14:05.550Z,1.85
2022-09-23T00:14:16.876Z,1.75
2022-09-23T00:14:28.100Z,1.88
2022-09-23T00:14:39.720Z,2.00
2022-09-23T00:14:50.922Z,2.17
2022-09-23T00:15:02.234Z,2.30
2022-09-23T00:15:13.492Z,2.13
2022-09-23T00:15:25.424Z,2.00
2022-09-23T00:15:39.781Z,2.08
2022-09-23T00:15:51.716Z,2.10
2022-09-23T00:16:04.338Z,1.98
2022-09-23T00:16:17.189Z,1.70
2022-09-23T00:16:30.089Z,1.85
2022-09-23T00:16:41.433Z,2.08
2022-09-23T00:16:52.829Z,2.03
2022-09-23T00:17:04.195Z,2.13
2022-09-23T00:17:15.508Z,2.28
2022-09-23T00:17:26.826Z,2.53
2022-09-23T00:17:38.046Z,2.40
2022-09-23T00:17:49.301Z,2.25
2022-09-23T00:18:00.527Z,2.22
2022-09-23T00:18:11.740Z,2.35
2022-09-23T00:18:22.978Z,2.20
2022-09-23T00:18:34.341Z,2.25
2022-09-23T00:18:45.633Z,2.28
2022-09-23T00:18:56.915Z,2.20
2022-09-23T00:19:08.202Z,1.92
2022-09-23T00:19:19.426Z,2.10
2022-09-23T00:19:30.720Z,2.25
2022-09-23T00:19:42.032Z,2.20
2022-09-23T00:19:53.547Z,2.10
2022-09-23T00:20:05.033Z,2.30
2022-09-23T00:20:16.379Z,2.45
2022-09-23T00:20:27.645Z,2.45
2022-09-23T00:20:38.875Z,2.53
2022-09-23T00:20:50.093Z,2.33
2022-09-23T00:21:05.224Z,2.00
2022-09-23T00:21:16.777Z,1.92
2022-09-23T00:21:28.215Z,2.20
2022-09-23T00:21:39.445Z,2.08
2022-09-23T00:21:50.673Z,1.70
2022-09-23T00:22:01.889Z,1.60
2022-09-23T00:22:13.134Z,1.88
2022-09-23T00:22:24.418Z,2.00
2022-09-23T00:22:35.953Z,2.00
2022-09-23T00:22:47.208Z,2.03
2022-09-23T00:22:58.467Z,2.15
2022-09-23T00:23:09.674Z,2.20
2022-09-23T00:23:21.103Z,2.20
2022-09-23T00:23:32.464Z,1.90
2022-09-23T00:23:43.756Z,2.00
2022-09-23T00:23:55.311Z,1.90
2022-09-23T00:24:06.684Z,1.80
2022-09-23T00:24:18.083Z,1.60
2022-09-23T00:24:29.363Z,1.70
2022-09-23T00:24:40.592Z,1.70
2022-09-23T00:24:51.859Z,1.70
2022-09-23T00:25:06.954Z,1.98
2022-09-23T00:25:18.217Z,2.20
2022-09-23T00:25:29.458Z,1.85
2022-09-23T00:25:40.719Z,1.63
2022-09-23T00:25:56.139Z,1.65
2022-09-23T00:26:08.703Z,2.15
2022-09-23T00:26:21.021Z,2.17
2022-09-23T00:26:32.288Z,2.22
2022-09-23T00:26:43.535Z,2.08
2022-09-23T00:26:54.804Z,1.90
2022-09-23T00:27:06.076Z,2.00
2022-09-23T00:27:17.329Z,2.15
2022-09-23T00:27:28.712Z,2.00
2022-09-23T00:27:39.959Z,2.05
2022-09-23T00:27:51.155Z,1.55
2022-09-23T00:28:02.383Z,1.60
2022-09-23T00:28:13.602Z,1.73
2022-09-23T00:28:24.854Z,1.77
2022-09-23T00:28:36.140Z,1.70
2022-09-23T00:28:48.051Z,1.85
2022-09-23T00:28:59.332Z,2.00
2022-09-23T00:29:10.586Z,2.17
2022-09-23T00:29:21.842Z,2.22
2022-09-23T00:29:33.206Z,2.15
2022-09-23T00:29:44.450Z,2.05
2022-09-23T00:29:55.678Z,1.90
2022-09-23T00:30:08.447Z,1.80
2022-09-23T00:30:19.708Z,2.05
2022-09-23T00:30:30.994Z,2.10
2022-09-23T00:30:42.351Z,2.00
2022-09-23T00:30:53.658Z,1.90
2022-09-23T00:31:11.135Z,2.00
2022-09-23T00:31:24.065Z,2.03
2022-09-23T00:31:35.306Z,2.13
2022-09-23T00:31:46.515Z,2.03
2022-09-23T00:31:57.791Z,2.40
2022-09-23T00:32:09.061Z,2.25
2022-09-23T00:32:20.346Z,2.35
2022-09-23T00:32:31.703Z,2.08
2022-09-23T00:32:42.983Z,2.00
2022-09-23T00:32:54.201Z,1.77
2022-09-23T00:33:05.448Z,1.80
2022-09-23T00:33:16.730Z,1.83
2022-09-23T00:33:28.001Z,1.95
2022-09-23T00:33:39.280Z,2.08
2022-09-23T00:33:57.357Z,2.00
2022-09-23T00:34:10.408Z,2.00
2022-09-23T00:34:21.695Z,1.90
2022-09-23T00:34:33.215Z,1.95
2022-09-23T00:34:44.525Z,1.98
2022-09-23T00:34:55.808Z,1.92
2022-09-23T00:35:07.284Z,1.83
2022-09-23T00:35:18.791Z,1.90
2022-09-23T00:35:30.057Z,1.95
2022-09-23T00:35:41.320Z,2.03
2022-09-23T00:35:58.031Z,2.00
2022-09-23T00:36:11.702Z,1.83
2022-09-23T00:36:23.395Z,1.80
2022-09-23T00:36:34.700Z,1.80
2022-09-23T00:36:45.936Z,1.70
2022-09-23T00:36:57.181Z,1.77
2022-09-23T00:37:08.407Z,1.80
2022-09-23T00:37:19.858Z,1.83
2022-09-23T00:37:31.378Z,2.00
2022-09-23T00:37:42.636Z,2.17
2022-09-23T00:37:53.908Z,2.00
2022-09-23T00:38:05.151Z,1.83
2022-09-23T00:38:16.415Z,1.63
2022-09-23T00:38:27.921Z,1.70
2022-09-23T00:38:39.204Z,1.80
2022-09-23T00:38:50.571Z,1.75
2022-09-23T00:39:04.157Z,1.70
2022-09-23T00:39:15.723Z,2.00
2022-09-23T00:39:26.969Z,2.13
2022-09-23T00:39:38.194Z,1.98
2022-09-23T00:39:49.572Z,1.80
2022-09-23T00:40:00.910Z,1.77
2022-09-23T00:40:12.178Z,1.80
2022-09-23T00:40:23.532Z,2.10
2022-09-23T00:40:34.842Z,2.08
2022-09-23T00:40:46.361Z,1.85
2022-09-23T00:40:57.689Z,1.80
2022-09-23T00:41:08.942Z,1.77
2022-09-23T00:41:20.770Z,1.80
2022-09-23T00:41:32.300Z,1.80
2022-09-23T00:41:43.564Z,2.20
2022-09-23T00:41:54.829Z,2.03
2022-09-23T00:42:06.775Z,2.00
2022-09-23T00:42:19.928Z,1.80
2022-09-23T00:42:31.217Z,1.70
2022-09-23T00:42:46.493Z,1.63
2022-09-23T00:42:57.962Z,1.75
2022-09-23T00:43:11.220Z,1.73
2022-09-23T00:43:40.764Z,1.90
2022-09-23T00:43:53.308Z,2.33
2022-09-23T00:44:24.697Z,2.20
2022-09-23T00:44:46.965Z,2.15
2022-09-23T00:44:59.324Z,2.00
2022-09-23T00:45:11.151Z,1.80
2022-09-23T00:45:22.417Z,1.83
2022-09-23T00:45:33.678Z,2.00
2022-09-23T00:45:50.383Z,1.98
2022-09-23T00:46:02.044Z,2.05
2022-09-23T00:46:15.782Z,1.98
2022-09-23T00:46:37.882Z,1.80
2022-09-23T00:46:49.248Z,1.80
2022-09-23T00:47:00.518Z,1.88
2022-09-23T00:47:14.485Z,1.90
2022-09-23T00:47:40.367Z,1.98
2022-09-23T00:47:59.171Z,1.70
2022-09-23T00:48:13.194Z,1.67
2022-09-23T00:48:24.460Z,1.70
2022-09-23T00:48:37.226Z,1.73
2022-09-23T00:48:50.534Z,2.13
2022-09-23T00:49:04.420Z,2.08
2022-09-23T00:49:20.736Z,1.80
2022-09-23T00:49:32.038Z,1.80
2022-09-23T00:49:44.210Z,1.80
2022-09-23T00:50:18.727Z,1.75
2022-09-23T00:50:33.486Z,2.20
2022-09-23T00:50:46.267Z,2.20
2022-09-23T00:50:57.563Z,1.90
2022-09-23T00:51:11.084Z,1.90
2022-09-23T00:51:23.399Z,1.80
2022-09-23T00:51:36.359Z,1.70
2022-09-23T00:51:50.512Z,1.83
2022-09-23T00:52:06.566Z,1.90
2022-09-23T00:52:19.988Z,1.95
2022-09-23T00:52:31.296Z,1.83
2022-09-23T00:52:43.275Z,1.90
2022-09-23T00:52:55.425Z,2.22
2022-09-23T00:53:07.909Z,2.17
2022-09-23T00:53:21.406Z,2.10
2022-09-23T00:53:32.693Z,2.03
2022-09-23T00:53:45.686Z,1.85
2022-09-23T00:53:57.037Z,1.95
2022-09-23T00:54:08.271Z,1.80
2022-09-23T00:54:20.734Z,1.90
2022-09-23T00:54:32.135Z,2.00
2022-09-23T00:54:44.878Z,2.05
2022-09-23T00:54:56.980Z,1.90
2022-09-23T00:55:17.685Z,2.08
2022-09-23T00:55:40.284Z,2.20
2022-09-23T00:55:56.290Z,1.92
2022-09-23T00:56:09.262Z,2.03
2022-09-23T00:56:21.972Z,2.22
2022-09-23T00:56:33.466Z,2.25
2022-09-23T00:56:44.878Z,2.22
2022-09-23T00:56:57.318Z,2.08
2022-09-23T00:57:09.511Z,2.17
2022-09-23T00:57:20.947Z,2.15
2022-09-23T00:57:32.593Z,1.92
2022-09-23T00:57:45.768Z,1.83
2022-09-23T00:57:58.905Z,1.90
2022-09-23T00:58:11.975Z,1.83
2022-09-23T00:58:27.931Z,1.80
2022-09-23T00:58:40.639Z,1.98
2022-09-23T00:58:52.150Z,2.20
2022-09-23T00:59:03.522Z,2.10
2022-09-23T00:59:14.960Z,1.98
2022-09-23T00:59:26.500Z,2.10
2022-09-23T00:59:37.945Z,2.22
2022-09-23T00:59:49.674Z,2.17
2022-09-23T01:00:01.084Z,2.13
2022-09-23T01:00:12.787Z,2.20
2022-09-23T01:00:24.220Z,2.00
2022-09-23T01:00:35.442Z,2.08
2022-09-23T01:00:46.678Z,1.98
2022-09-23T01:01:02.401Z,2.03
2022-09-23T01:01:13.974Z,2.45
2022-09-23T01:01:25.411Z,2.50
2022-09-23T01:01:37.914Z,2.17
2022-09-23T01:01:49.871Z,1.60
2022-09-23T01:02:02.133Z,1.80
2022-09-23T01:02:14.064Z,1.98
2022-09-23T01:02:25.821Z,2.03
2022-09-23T01:02:37.118Z,2.10
2022-09-23T01:02:48.421Z,2.15
2022-09-23T01:03:00.900Z,2.10
2022-09-23T01:03:13.182Z,2.03
2022-09-23T01:03:24.390Z,1.98
2022-09-23T01:03:35.683Z,1.92
2022-09-23T01:03:47.177Z,2.00
2022-09-23T01:03:58.760Z,2.10
2022-09-23T01:04:10.004Z,2.05
2022-09-23T01:04:25.271Z,2.15
2022-09-23T01:04:36.519Z,2.15
2022-09-23T01:04:49.269Z,1.92
2022-09-23T01:05:01.530Z,2.13
2022-09-23T01:05:13.023Z,2.35
2022-09-23T01:05:24.263Z,2.40
2022-09-23T01:05:35.555Z,2.38
2022-09-23T01:05:46.942Z,2.13
2022-09-23T01:05:58.257Z,2.25
2022-09-23T01:06:09.795Z,2.30
2022-09-23T01:06:21.287Z,2.15
2022-09-23T01:06:32.495Z,1.98
2022-09-23T01:06:43.838Z,1.95
2022-09-23T01:06:55.068Z,1.80
2022-09-23T01:07:06.326Z,1.95
2022-09-23T01:07:17.721Z,2.00
2022-09-23T01:07:29.001Z,2.03
2022-09-23T01:07:41.224Z,2.05
2022-09-23T01:07:53.079Z,2.00
2022-09-23T01:08:04.536Z,2.28
2022-09-23T01:08:16.217Z,2.63
2022-09-23T01:08:27.825Z,2.80
2022-09-23T01:08:39.684Z,2.42
2022-09-23T01:08:51.265Z,1.95
2022-09-23T01:09:02.671Z,2.08
2022-09-23T01:09:14.004Z,2.33
2022-09-23T01:09:25.407Z,2.25
2022-09-23T01:09:37.079Z,2.20
2022-09-23T01:09:48.853Z,2.05
2022-09-23T01:10:00.799Z,2.10
2022-09-23T01:10:14.229Z,2.00
2022-09-23T01:10:27.273Z,1.92
2022-09-23T01:11:02.493Z,2.10
2022-09-23T01:11:22.805Z,2.15
2022-09-23T01:11:38.158Z,2.10
2022-09-23T01:12:07.999Z,2.15
2022-09-23T01:12:43.360Z,2.15
2022-09-23T01:13:13.420Z,2.55
2022-09-23T01:13:30.672Z,2.53
2022-09-23T01:14:08.351Z,2.35
2022-09-23T01:14:22.302Z,2.28
2022-09-23T01:14:33.567Z,2.40
2022-09-23T01:14:44.784Z,2.28
2022-09-23T01:14:58.720Z,2.35
2022-09-23T01:15:12.823Z,2.50
2022-09-23T01:15:44.317Z,2.50
2022-09-23T01:16:05.296Z,2.33
2022-09-23T01:16:28.686Z,2.33
2022-09-23T01:16:40.070Z,2.15
2022-09-23T01:17:14.320Z,2.20
2022-09-23T01:17:44.468Z,2.45
2022-09-23T01:17:58.595Z,2.53
2022-09-23T01:18:19.207Z,2.50
2022-09-23T01:18:38.308Z,2.30
2022-09-23T01:19:01.636Z,2.50
2022-09-23T01:19:16.044Z,2.72
2022-09-23T01:19:36.512Z,2.42
2022-09-23T01:19:56.888Z,2.42
2022-09-23T01:20:27.079Z,2.40
2022-09-23T01:20:52.693Z,2.08
2022-09-23T01:21:22.735Z,2.30
2022-09-23T01:21:52.510Z,2.30
2022-09-23T01:22:12.963Z,2.47
2022-09-23T01:22:24.214Z,2.40
2022-09-23T01:22:40.528Z,2.30
2022-09-23T01:23:03.767Z,2.20
2022-09-23T01:23:14.976Z,2.38
2022-09-23T01:23:43.253Z,2.42
2022-09-23T01:23:57.240Z,2.30
2022-09-23T01:24:27.423Z,2.50
2022-09-23T01:24:56.717Z,2.00
2022-09-23T01:25:07.993Z,2.33
2022-09-23T01:25:25.359Z,2.47
2022-09-23T01:25:44.866Z,2.50
2022-09-23T01:26:02.001Z,2.53
2022-09-23T01:26:37.476Z,2.40
2022-09-23T01:27:09.011Z,2.00
2022-09-23T01:27:40.020Z,2.35
2022-09-23T01:28:09.413Z,2.35
2022-09-23T01:28:32.917Z,2.08
2022-09-23T01:28:44.114Z,2.35
2022-09-23T01:29:13.143Z,2.50
2022-09-23T01:29:43.253Z,2.25
2022-09-23T01:30:13.119Z,2.20
2022-09-23T01:30:33.914Z,2.08
2022-09-23T01:30:57.555Z,2.35
2022-09-23T01:31:08.874Z,2.60
2022-09-23T01:31:26.084Z,2.60
2022-09-23T01:31:48.717Z,2.28
2022-09-23T01:32:00.006Z,2.20
2022-09-23T01:32:29.710Z,2.35
2022-09-23T01:32:43.727Z,2.10
2022-09-23T01:33:24.393Z,2.10
2022-09-23T01:33:40.257Z,1.85
2022-09-23T01:33:57.023Z,2.00
2022-09-23T01:34:17.457Z,2.45
2022-09-23T01:34:35.367Z,2.42
2022-09-23T01:34:51.094Z,2.42
2022-09-23T01:35:12.967Z,2.35
2022-09-23T01:35:37.839Z,1.95
2022-09-23T01:35:57.969Z,2.40
2022-09-23T01:36:18.669Z,2.63
2022-09-23T01:36:34.527Z,2.63
2022-09-23T01:36:57.262Z,2.30
2022-09-23T01:37:14.379Z,2.20
2022-09-23T01:37:28.731Z,2.03
2022-09-23T01:38:03.492Z,2.10
2022-09-23T01:38:29.433Z,2.53
2022-09-23T01:38:43.981Z,2.60
2022-09-23T01:39:00.890Z,2.50
2022-09-23T01:39:12.118Z,2.67
2022-09-23T01:39:23.324Z,2.33
2022-09-23T01:39:36.545Z,2.10
2022-09-23T01:39:52.341Z,2.47
2022-09-23T01:40:12.959Z,2.75
2022-09-23T01:40:29.640Z,2.28
2022-09-23T01:40:56.214Z,2.30
2022-09-23T01:41:10.554Z,2.30
2022-09-23T01:41:44.493Z,2.28
2022-09-23T01:42:01.666Z,2.10
2022-09-23T01:42:25.891Z,2.20
2022-09-23T01:42:47.664Z,2.40
2022-09-23T01:43:11.245Z,2.25
2022-09-23T01:43:22.504Z,2.47
2022-09-23T01:43:33.740Z,2.60
2022-09-23T01:43:47.658Z,2.67
2022-09-23T01:44:09.946Z,2.55
2022-09-23T01:44:30.054Z,2.20
2022-09-23T01:44:46.176Z,2.38
2022-09-23T01:45:05.581Z,2.38
2022-09-23T01:45:28.669Z,2.53
2022-09-23T01:45:50.478Z,2.80
2022-09-23T01:46:03.243Z,2.72
2022-09-23T01:46:18.612Z,2.55
2022-09-23T01:46:32.080Z,2.55
2022-09-23T01:47:03.589Z,2.33
2022-09-23T01:47:22.793Z,2.70
2022-09-23T01:47:39.690Z,2.50
2022-09-23T01:47:54.143Z,2.97
2022-09-23T01:48:23.533Z,3.10
2022-09-23T01:48:34.909Z,2.45
2022-09-23T01:48:55.214Z,2.38
2022-09-23T01:49:06.440Z,2.47
2022-09-23T01:49:17.739Z,2.60
2022-09-23T01:49:32.989Z,2.60
2022-09-23T01:49:47.041Z,2.40
2022-09-23T01:50:11.041Z,2.60
2022-09-23T01:50:24.927Z,2.75
2022-09-23T01:50:39.033Z,2.88
2022-09-23T01:50:56.453Z,2.88
2022-09-23T01:51:14.461Z,2.65
2022-09-23T01:51:28.167Z,2.60
2022-09-23T01:51:41.798Z,2.70
2022-09-23T01:51:56.989Z,2.80
2022-09-23T01:52:11.202Z,2.60
2022-09-23T01:52:22.483Z,2.70
2022-09-23T01:52:40.272Z,2.80
2022-09-23T01:52:53.007Z,2.65
2022-09-23T01:53:30.699Z,2.55
2022-09-23T01:53:47.707Z,2.67
2022-09-23T01:54:01.710Z,2.88
2022-09-23T01:54:21.451Z,3.05
2022-09-23T01:54:32.678Z,3.17
2022-09-23T01:54:48.535Z,2.92
2022-09-23T01:55:31.952Z,2.60
2022-09-23T01:55:47.040Z,2.65
2022-09-23T01:56:02.071Z,2.40
2022-09-23T01:56:17.575Z,2.60
2022-09-23T01:56:30.565Z,3.17
2022-09-23T01:56:50.298Z,3.15
2022-09-23T01:57:06.952Z,2.40
2022-09-23T01:57:24.390Z,2.80
2022-09-23T01:57:38.173Z,3.20
2022-09-23T01:57:54.992Z,2.90
2022-09-23T01:58:15.791Z,3.10
2022-09-23T01:58:30.399Z,2.72
2022-09-23T01:58:56.091Z,2.67
2022-09-23T01:59:07.354Z,2.72
2022-09-23T01:59:20.815Z,2.60
2022-09-23T01:59:36.766Z,2.50
2022-09-23T01:59:50.424Z,2.60
2022-09-23T02:00:13.820Z,2.92
2022-09-23T02:00:26.895Z,3.15
2022-09-23T02:00:40.046Z,3.00
2022-09-23T02:01:02.033Z,3.10
2022-09-23T02:01:17.404Z,2.88
2022-09-23T02:01:32.279Z,2.72
2022-09-23T02:01:59.117Z,2.90
2022-09-23T02:02:15.739Z,3.10
2022-09-23T02:02:29.694Z,3.53
2022-09-23T02:02:56.560Z,3.10
2022-09-23T02:03:11.275Z,3.00
2022-09-23T02:03:28.586Z,2.95
2022-09-23T02:03:42.372Z,2.95
2022-09-23T02:03:58.855Z,2.95
2022-09-23T02:04:13.373Z,2.70
2022-09-23T02:04:30.682Z,2.67
2022-09-23T02:04:44.915Z,2.88
2022-09-23T02:05:10.961Z,2.80
2022-09-23T02:05:26.404Z,2.47
2022-09-23T02:05:39.553Z,2.65
2022-09-23T02:05:53.910Z,2.72
2022-09-23T02:06:17.295Z,2.90
2022-09-23T02:06:31.981Z,2.97
2022-09-23T02:06:46.674Z,2.95
2022-09-23T02:07:03.541Z,2.65
2022-09-23T02:07:20.762Z,3.10
2022-09-23T02:07:39.091Z,3.28
2022-09-23T02:07:55.506Z,2.80
2022-09-23T02:08:11.441Z,2.70
2022-09-23T02:08:34.384Z,2.92
2022-09-23T02:09:03.089Z,3.15
2022-09-23T02:09:16.294Z,2.83
2022-09-23T02:09:31.575Z,2.90
2022-09-23T02:09:44.016Z,3.15
2022-09-23T02:10:02.623Z,3.00
2022-09-23T02:10:17.142Z,2.53
2022-09-23T02:10:37.359Z,2.90
2022-09-23T02:10:57.265Z,3.30
2022-09-23T02:11:10.607Z,2.53
2022-09-23T02:11:21.956Z,2.30
2022-09-23T02:11:34.792Z,2.28
2022-09-23T02:11:47.473Z,2.70
2022-09-23T02:12:02.466Z,2.92
2022-09-23T02:12:16.561Z,2.97
2022-09-23T02:12:29.698Z,2.78
2022-09-23T02:12:42.305Z,2.80
2022-09-23T02:12:57.160Z,2.80
2022-09-23T02:13:17.617Z,2.75
2022-09-23T02:13:31.460Z,2.80
2022-09-23T02:13:48.604Z,2.90
2022-09-23T02:14:02.441Z,2.80
2022-09-23T02:14:30.422Z,2.67
2022-09-23T02:14:46.013Z,2.88
2022-09-23T02:15:01.827Z,3.03
2022-09-23T02:15:15.603Z,2.90
2022-09-23T02:15:32.122Z,2.60
2022-09-23T02:15:47.502Z,2.78
2022-09-23T02:16:01.171Z,3.35
2022-09-23T02:16:20.314Z,3.13
2022-09-23T02:16:33.759Z,2.70
2022-09-23T02:16:49.893Z,2.67
2022-09-23T02:17:03.279Z,2.65
2022-09-23T02:17:17.668Z,2.40
2022-09-23T02:17:36.478Z,2.53
2022-09-23T02:17:51.549Z,3.03
2022-09-23T02:18:04.853Z,3.17
2022-09-23T02:18:19.893Z,3.10
2022-09-23T02:18:37.618Z,2.50
2022-09-23T02:18:54.003Z,2.67
2022-09-23T02:19:13.954Z,2.90
2022-09-23T02:19:25.129Z,2.75
2022-09-23T02:19:43.469Z,2.58
2022-09-23T02:19:57.033Z,2.80
2022-09-23T02:20:08.406Z,2.90
2022-09-23T02:20:23.525Z,2.78
2022-09-23T02:20:37.204Z,2.83
2022-09-23T02:20:50.436Z,2.78
2022-09-23T02:21:05.138Z,2.63
2022-09-23T02:21:17.639Z,2.85
2022-09-23T02:21:32.305Z,2.88
2022-09-23T02:21:45.976Z,2.60
2022-09-23T02:22:05.271Z,2.70
2022-09-23T02:22:20.153Z,2.65
2022-09-23T02:23:00.892Z,2.67
2022-09-23T02:23:16.932Z,2.97
2022-09-23T02:23:57.132Z,2.95
2022-09-23T02:24:16.111Z,2.85
2022-09-23T02:24:30.303Z,2.78
2022-09-23T02:24:41.622Z,2.65
2022-09-23T02:24:52.867Z,2.55
2022-09-23T02:25:04.345Z,2.70
2022-09-23T02:25:15.665Z,2.78
2022-09-23T02:25:31.244Z,2.90
2022-09-23T02:26:01.365Z,2.72
2022-09-23T02:26:41.740Z,2.60
2022-09-23T02:26:55.777Z,2.83
2022-09-23T02:27:29.480Z,3.22
2022-09-23T02:27:51.666Z,2.67
2022-09-23T02:28:05.656Z,3.10
2022-09-23T02:28:19.445Z,2.35
2022-09-23T02:28:36.775Z,2.13
2022-09-23T02:29:17.246Z,2.50
2022-09-23T02:29:31.159Z,2.70
2022-09-23T02:29:47.840Z,2.50
2022-09-23T02:30:08.332Z,2.53
2022-09-23T02:30:28.460Z,2.67
2022-09-23T02:30:46.980Z,2.40
2022-09-23T02:31:09.885Z,2.60
2022-09-23T02:31:33.269Z,2.72
2022-09-23T02:31:44.606Z,2.20
2022-09-23T02:32:14.355Z,2.20
2022-09-23T02:32:25.622Z,3.05
2022-09-23T02:32:48.990Z,3.03
2022-09-23T02:33:08.310Z,2.50
2022-09-23T02:33:31.975Z,2.47
2022-09-23T02:34:03.481Z,2.40
2022-09-23T02:34:28.506Z,2.63
2022-09-23T02:34:58.072Z,2.22
2022-09-23T02:35:18.580Z,2.50
2022-09-23T02:35:39.077Z,2.47
2022-09-23T02:35:53.300Z,2.70
2022-09-23T02:36:08.985Z,3.03
2022-09-23T02:36:26.244Z,2.80
2022-09-23T02:36:45.736Z,2.28
2022-09-23T02:37:05.195Z,2.35
2022-09-23T02:37:22.276Z,2.55
2022-09-23T02:37:53.098Z,2.80
2022-09-23T02:38:04.337Z,2.85
2022-09-23T02:38:34.119Z,2.83
2022-09-23T02:38:48.807Z,2.72
2022-09-23T02:39:02.431Z,2.92
2022-09-23T02:39:14.059Z,3.08
2022-09-23T02:39:30.317Z,2.92
2022-09-23T02:39:48.387Z,2.80
2022-09-23T02:40:31.954Z,2.58
2022-09-23T02:40:57.851Z,2.67
2022-09-23T02:41:09.108Z,2.25
2022-09-23T02:41:32.280Z,2.40
2022-09-23T02:41:50.707Z,2.42
2022-09-23T02:42:04.161Z,2.33
2022-09-23T02:42:19.814Z,2.42
2022-09-23T02:42:37.626Z,2.63
2022-09-23T02:42:48.887Z,2.78
2022-09-23T02:43:14.676Z,2.95
2022-09-23T02:43:29.226Z,2.70
2022-09-23T02:43:45.554Z,2.53
2022-09-23T02:44:01.160Z,2.58
2022-09-23T02:44:14.434Z,2.38
2022-09-23T02:44:25.898Z,2.45
2022-09-23T02:44:37.141Z,2.65
2022-09-23T02:44:48.571Z,2.70
2022-09-23T02:44:59.837Z,2.50
2022-09-23T02:45:11.207Z,2.45
2022-09-23T02:45:22.509Z,2.40
2022-09-23T02:45:34.115Z,2.30
2022-09-23T02:45:51.118Z,2.20
2022-09-23T02:46:03.622Z,2.28
2022-09-23T02:46:15.121Z,2.65
2022-09-23T02:46:26.788Z,2.83
2022-09-23T02:46:38.493Z,2.80
2022-09-23T02:46:49.893Z,2.65
2022-09-23T02:47:01.249Z,2.70
2022-09-23T02:47:12.625Z,2.70
2022-09-23T02:47:26.444Z,3.08
2022-09-23T02:47:38.583Z,3.10
2022-09-23T02:47:51.955Z,2.83
2022-09-23T02:48:05.909Z,2.60
2022-09-23T02:48:19.320Z,2.50
2022-09-23T02:48:33.893Z,2.70
2022-09-23T02:49:05.363Z,2.70
2022-09-23T02:49:18.894Z,2.35
2022-09-23T02:49:31.027Z,2.30
2022-09-23T02:49:42.300Z,2.38
2022-09-23T02:49:53.579Z,2.40
2022-09-23T02:50:05.175Z,2.33
2022-09-23T02:50:16.582Z,2.42
2022-09-23T02:50:28.187Z,2.53
2022-09-23T02:50:39.570Z,2.50
2022-09-23T02:50:50.814Z,2.38
2022-09-23T02:51:02.081Z,2.15
2022-09-23T02:51:13.386Z,2.10
2022-09-23T02:51:24.692Z,2.30
2022-09-23T02:51:35.933Z,2.53
2022-09-23T02:51:47.484Z,2.85
2022-09-23T02:52:00.795Z,2.92
2022-09-23T02:52:12.005Z,2.80
2022-09-23T02:52:23.316Z,2.47
2022-09-23T02:52:34.739Z,2.45
2022-09-23T02:52:46.357Z,2.50
2022-09-23T02:52:58.214Z,2.53
2022-09-23T02:53:09.573Z,2.75
2022-09-23T02:53:22.901Z,2.60
2022-09-23T02:53:34.587Z,2.50
2022-09-23T02:53:46.551Z,2.50
2022-09-23T02:53:57.856Z,2.22
2022-09-23T02:54:11.327Z,2.15
2022-09-23T02:54:24.294Z,2.20
2022-09-23T02:54:36.660Z,2.47
2022-09-23T02:54:47.927Z,2.50
2022-09-23T02:54:59.764Z,2.38
2022-09-23T02:55:11.509Z,2.40
2022-09-23T02:55:23.331Z,2.30
2022-09-23T02:55:34.870Z,2.28
2022-09-23T02:55:46.116Z,2.47
2022-09-23T02:55:57.367Z,2.60
2022-09-23T02:56:20.894Z,2.80
2022-09-23T02:56:32.164Z,2.58
2022-09-23T02:56:43.464Z,2.30
2022-09-23T02:56:54.836Z,2.22
2022-09-23T02:57:07.387Z,2.13
2022-09-23T02:57:19.109Z,2.28
2022-09-23T02:57:30.460Z,2.47
2022-09-23T02:57:41.708Z,2.60
2022-09-23T02:57:52.993Z,2.50
2022-09-23T02:58:04.323Z,2.40
2022-09-23T02:58:15.581Z,2.20
2022-09-23T02:58:27.367Z,2.15
2022-09-23T02:58:38.627Z,2.35
2022-09-23T02:58:51.279Z,2.83
2022-09-23T02:59:03.404Z,2.83
2022-09-23T02:59:15.931Z,2.50
2022-09-23T02:59:27.242Z,2.50
2022-09-23T02:59:38.749Z,2.58
2022-09-23T02:59:50.028Z,2.45
2022-09-23T03:00:01.373Z,2.53
2022-09-23T03:00:13.050Z,2.55
2022-09-23T03:00:25.729Z,2.42
2022-09-23T03:00:57.269Z,2.40
2022-09-23T03:01:16.612Z,2.25
2022-09-23T03:01:44.696Z,2.20
2022-09-23T03:01:58.527Z,2.30
2022-09-23T03:02:16.138Z,2.20
2022-09-23T03:02:27.484Z,2.17
2022-09-23T03:03:02.156Z,2.10
2022-09-23T03:03:19.479Z,2.40
2022-09-23T03:03:36.749Z,2.40
2022-09-23T03:04:00.441Z,2.53
2022-09-23T03:04:15.933Z,2.33
2022-09-23T03:04:30.357Z,2.30
2022-09-23T03:05:00.391Z,2.40
2022-09-23T03:05:14.449Z,2.20
2022-09-23T03:05:27.728Z,2.40
2022-09-23T03:05:45.094Z,2.35
2022-09-23T03:05:57.483Z,2.65
2022-09-23T03:06:24.047Z,2.80
2022-09-23T03:06:43.263Z,2.25
2022-09-23T03:06:57.480Z,2.58
2022-09-23T03:07:20.747Z,2.58
2022-09-23T03:07:31.964Z,2.70
2022-09-23T03:07:55.388Z,2.42
2022-09-23T03:08:32.289Z,2.40
2022-09-23T03:08:47.844Z,2.80
2022-09-23T03:09:19.350Z,2.45
2022-09-23T03:09:41.260Z,2.03
2022-09-23T03:10:03.561Z,2.50
2022-09-23T03:10:14.756Z,2.70
2022-09-23T03:10:30.304Z,2.80
2022-09-23T03:10:41.597Z,2.50
2022-09-23T03:10:56.308Z,2.30
2022-09-23T03:11:08.674Z,2.17
2022-09-23T03:11:20.397Z,2.22
2022-09-23T03:11:32.362Z,2.47
2022-09-23T03:11:46.519Z,2.55
2022-09-23T03:12:15.993Z,2.28
2022-09-23T03:12:33.393Z,2.42
2022-09-23T03:13:00.013Z,2.25
2022-09-23T03:13:20.435Z,2.47
2022-09-23T03:13:37.142Z,2.20
2022-09-23T03:14:07.105Z,2.28
2022-09-23T03:14:36.132Z,2.42
2022-09-23T03:14:58.577Z,2.40
2022-09-23T03:15:28.685Z,2.55
2022-09-23T03:15:52.463Z,2.20
2022-09-23T03:16:06.619Z,2.33
2022-09-23T03:16:23.967Z,2.70
2022-09-23T03:16:53.413Z,2.83
2022-09-23T03:17:08.706Z,2.35
2022-09-23T03:17:29.356Z,2.30
2022-09-23T03:17:43.646Z,2.50
2022-09-23T03:18:16.724Z,2.33
2022-09-23T03:18:42.645Z,2.63
2022-09-23T03:19:12.302Z,2.33
2022-09-23T03:19:30.332Z,2.38
2022-09-23T03:19:41.540Z,2.40
2022-09-23T03:19:59.004Z,2.20
2022-09-23T03:20:14.714Z,2.17
2022-09-23T03:20:37.909Z,2.58
2022-09-23T03:20:52.233Z,2.72
2022-09-23T03:21:21.557Z,2.50
2022-09-23T03:21:37.240Z,2.40
2022-09-23T03:21:54.640Z,2.40
2022-09-23T03:22:08.456Z,2.33
2022-09-23T03:22:22.651Z,2.28
2022-09-23T03:22:36.695Z,2.38
2022-09-23T03:22:51.646Z,2.50
2022-09-23T03:23:05.616Z,2.45
2022-09-23T03:23:19.807Z,2.40
2022-09-23T03:23:35.717Z,2.40
2022-09-23T03:23:47.863Z,2.30
2022-09-23T03:23:59.787Z,2.25
2022-09-23T03:24:12.106Z,2.20
2022-09-23T03:24:23.837Z,2.25
2022-09-23T03:24:36.671Z,2.22
2022-09-23T03:24:53.215Z,2.60
2022-09-23T03:25:24.132Z,2.80